Relevés horaires Schaffen (Belgique)


Relevés horaires à Schaffen - Vendredi 03 Avr. 2026
Heure UTC1 Température [°C] Vent [km/h] Hum. [%] Pres.4 [hPa] Visi. [Km] Nébu. [octa] Préc.5 [mm] Cond.
2m. Res. Ros. Dir.2 Vit. Moy. Raf.3
23:00 11.8 10.4 9.5 OSO 13.0 -- 22.2 86 1015.1(0.8/3h) >70 -- -- --
22:00 11.5 10.5 9.5 SO 9.3 -- 16.7 88 1014.6(0.4/3h) >70 -- -- NA
21:00 11.3 10.7 9.1 SO 7.4 -- 20.4 86 1014.5(0.4/3h) >70 -- -- NA
20:00 11.1 10.4 8.7 SO 7.4 -- 16.7 85 1014.2(0.3/3h) >70 -- -- --
19:00 11.2 10.2 8.1 SO 9.3 -- 20.4 81 1014.1(0.3/3h) >70 -- -- --
18:00 11.1 10.1 7.8 SO 9.3 -- 24.1 80 1014(0.0/3h) >70 -- -- NA
17:00 11.6 10.4 7.1 SSO 11.1 11.1 20.4 74 1014(-0.9/3h) 20 -- -- Il y a de la bruine et pluie mêlées d'intensité faible à la station au moment de l'observation
16:00 12.1 11.2 6.2 SSO 9.3 -- 18.5 67 1013.7(-1.3/3h) >70 -- -- --
15:00 12.3 11.2 6.0 SSO 11.1 -- 24.1 65 1014(-1.8/3h) >70 -- -- --
14:00 12.2 11.4 5.4 SSO 9.3 -- 24.1 63 1014.7(-1.6/3h) >70 -- -- --
13:00 12.2 11.1 3.7 SSO 11.1 -- 20.4 56 1015.2(-2.0/3h) >70 -- -- --
12:00 10.7 9.6 2.9 SO 9.3 -- 20.4 58 1015.8(-1.7/3h) >70 -- -- --
11:00 9.9 8.6 3.4 SSO 9.3 -- 18.5 64 1016.5(-1.4/3h) >70 -- -- --
10:00 8.2 6.6 2.5 SO 9.3 -- 18.5 67 1017.3(-0.8/3h) 17 -- -- --
09:00 7.4 6.1 3.4 SSO 7.4 -- 13.0 76 1017.7(-0.3/3h) 45 -- -- --
08:00 6.1 5.1 3.4 SSO 5.6 -- 11.1 83 1018(-0.2/3h) 35 -- -- --
07:00 5.4 5.4 2.9 SSO 3.7 -- 5.6 84 1018.2(-0.1/3h) 40 -- -- --
06:00 4.4 4.4 2.4 NNO 1.9 -- 5.6 87 1018.2(-0.1/3h) 40 -- -- --
05:00 4.0 4.0 1.1 NNO 1.9 -- 3.7 81 1018.2(-0.7/3h) >70 -- -- --
04:00 4.2 4.2 0.5 NNO 1.9 -- 5.6 77 1018.5(-0.5/3h) >70 -- -- --
03:00 4.5 4.5 1.8 NNO 1.9 -- 5.6 83 1018.3(-0.7/3h) >70 -- -- --
02:00 4.6 4.6 2.2 OSO 3.7 -- 5.6 84 1019.1(-0.5/3h) 15 -- -- --
01:00 5.1 5.1 2.1 NNO 1.9 1.9 3.7 81 1019.1(-0.8/3h) 17 -- -- --
00:00 5.9 5.9 2.9 NNO 1.9 -- 13.0 81 1019.2(-0.7/3h) 17 -- -- --

1 Coordinated Universal Time. Actuellement il est 12:00 locale et 10:00 UTC.

2 Le vent souffle depuis la direction indiquée vers la direction oposée.

3 Les rafales max. sont disponible 40 min après l'heure du relevé.

4 Pour les stations d'altitude (plus de 600m) le géopotentiel du niveau le plus proche de la pression obligatoire est indiqué.

5 Les stations disposant d'un diffuseur peuvent indiquer "trace". Cela signifie que des précipitations ont touchés le sol mais que la quantité est inférieure à 0.1 mm.

Récapitulatif de la journée
Température [°C] Vent [km/h] Ensoleillement4 [h] Precipitations totale5 [mm] Pression [Hpa]
Min1 Max.2 Moy.3 Max. Min Max.
3.5 13.0 6.5 24.1 0 h 0 min 0 1013.7 1019.2

1 Température minimale relevée entre 18:00 UTC la veille et 18:00 UTC le jour donné.

2 Température maximale relevée entre 06:00 UTC le jour donné et 06:00 UTC le lendemain.

3 Vent moyen de la journée basé sur les relevés horaires.

4 Ensoleillement en heures relevé entre 06:00 UTC la veille et 06:00 UTC le jour donné.

5 Précipitations totales tombées entre 06:00 UTC la jour donné et 06:00 UTC le lendemain.

Graphiques horaires